Ingram, TX (78025)

8:08 AM CDT on August 29, 2014 (GMT -0500)
Rancho El Rincon | Change Station
CLOSE
Current Station
Personal Weather Station
Location: Kerrville, TX
Elevation: 1736 ft
Nearby Weather Stations

Elev 1736 ft 30.05 °N, 99.24 °W | Updated 5 minutes ago

Partly Cloudy
Partly Cloudy
72.9 °F
Feels Like 72.9 °F
N
2.0
Wind Variable Wind from NE
Gusts 3.0 mph

Today
High -- | Low -- °F
--% Chance of Precip.
Yesterday
High -- | Low -- °F
Precip. -- in
7:12 AM 8:02 PM
Waxing Crescent, 14% visible
Pressure 29.96 in
Visibility 7.0 miles
Clouds Scattered Clouds 900 ft
Dew Point 71 °F
Humidity 93%
Rainfall 0.00 in
Snow Depth Not available.
UV 0 out of 12
Pollen 9.10 out of 12
Air Quality Not available.
Flu Activity Not available.
METAR KERV 291255Z AUTO 00000KT 7SM SCT009 23/22 A2996 RMK AO2 T02260215

More Conditions Fewer Conditions

Pressure 29.96 in
Visibility 7.0 miles
Clouds Scattered Clouds 900 ft
Dew Point 71 °F
Humidity 93%
Rainfall 0.00 in
Snow Depth Not available.
UV 0 out of 12
Pollen 9.10 out of 12
Air Quality Not available.
Flu Activity Not available.
METAR KERV 291255Z AUTO 00000KT 7SM SCT009 23/22 A2996 RMK AO2 T02260215

More Conditions Fewer Conditions

Nowcast | as of 5:37 am CDT on August 29, 2014

Through 9 am CDT...isolated to scattered showers and thunderstorms over west central Texas will move southeast at 15 mph toward central Texas and the southern Edwards Plateau. Rain chances will advance south to near an Amistad Reservoir to Mountain Home to Jarrell line by 9 am. Early morning rainfall amounts north of this line should average less than 1/10 inch...but a few totals up to 1/2 inch are possible. Rain chances will continue to expand south and east into the I-35 corridor counties later today.

×

10-Day Weather Forecast

Almanac

Astronomy

Aug. 29, 2014 Rise Set
Actual Time 7:12 AM CDT 8:02 PM CDT
Civil Twilight 6:47 AM CDT 8:27 PM CDT
Nautical Twilight 6:18 AM CDT 8:56 PM CDT
Astronomical Twilight 5:49 AM CDT 9:25 PM CDT
Moon 10:43 AM CDT 10:22 PM CDT
Length of Visible Light 13h 39m
Length of Day
12h 50m
Tomorrow will be 1m 43s shorter.
Waxing Crescent, 14% of the Moon is Illuminated
Today
Waxing Crescent
Sep 2
First Quarter
Sep 8
Full
Sep 15
Last Quarter
Sep 24
New

Today's Extremes

State Highs State Lows

Community

WunderPhotos

Upload Photos

1,748,223 photos uploaded!

Nearby

Snow Depth

Station Depth Elevation
No new snow has been reported.

Earthquake Activity

City Distance Mag. Time & Date
No recent earthquake activity has been reported nearby.
Minimum magnitude displayed is 2.5.

Coastal Water Temperatures

Place Temperature
No Stations Reporting

Nearby Weather Stations